Time;durP1;ratioP1;P1;durP2;ratioP2;P2;SDS_P1;SDS_P2;PMS_P1;PMS_P2;Temp;Humidity;BMP_temperature;BMP_pressure;BME280_temperature;BME280_humidity;BME280_pressure;Samples;Min_cycle;Max_cycle;Signal;HPM_P1;HPM_P2
2022/06/12 00:00:20;;;;;;;5.25;0.82;;;18.60;90.40;;;;;;4994377;28;20113;-65
2022/06/12 00:02:45;;;;;;;3.15;1.08;;;18.30;87.90;;;;;;4991191;28;20502;-65
2022/06/12 00:05:14;;;;;;;1.88;0.93;;;18.40;88.20;;;;;;4994377;28;20052;-65
2022/06/12 00:07:41;;;;;;;2.63;0.80;;;18.40;88.10;;;;;;4994401;28;20030;-65
2022/06/12 00:10:08;;;;;;;2.80;1.00;;;18.40;88.00;;;;;;4993865;28;20053;-65
2022/06/12 00:12:35;;;;;;;4.15;0.90;;;18.30;87.60;;;;;;4994213;28;20069;-65
2022/06/12 00:15:02;;;;;;;3.35;0.93;;;18.30;87.50;;;;;;4994104;28;20054;-66
2022/06/12 00:17:28;;;;;;;2.90;0.98;;;18.20;87.20;;;;;;4993917;28;20034;-66
2022/06/12 00:19:54;;;;;;;6.60;1.35;;;18.10;87.90;;;;;;4994060;28;20107;-65
2022/06/12 00:22:20;;;;;;;3.72;1.02;;;17.80;88.20;;;;;;4994316;28;20061;-65
2022/06/12 00:24:45;;;;;;;6.95;1.23;;;17.90;87.60;;;;;;4976727;28;20453;-65
2022/06/12 00:27:11;;;;;;;3.40;1.00;;;18.00;88.20;;;;;;4993966;28;20173;-65
2022/06/12 00:29:39;;;;;;;4.05;0.98;;;18.20;85.50;;;;;;4994009;28;20076;-65
2022/06/12 00:32:12;;;;;;;3.10;0.70;;;18.30;84.90;;;;;;4994088;28;20570;-65
2022/06/12 00:34:52;;;;;;;3.55;1.00;;;18.60;83.90;;;;;;4993768;28;20042;-65
2022/06/12 00:37:21;;;;;;;2.42;0.98;;;18.70;83.70;;;;;;4993825;28;20042;-65
2022/06/12 00:39:49;;;;;;;2.08;0.68;;;18.50;84.90;;;;;;4993986;28;20038;-65
2022/06/12 00:42:32;;;;;;;4.25;1.20;;;18.30;85.70;;;;;;4993894;28;20509;-65
2022/06/12 00:45:01;;;;;;;4.68;0.90;;;18.00;87.50;;;;;;4993696;28;20513;-65
2022/06/12 00:47:27;;;;;;;4.20;0.88;;;17.90;88.30;;;;;;4993667;28;20120;-65
2022/06/12 00:50:07;;;;;;;2.65;0.82;;;17.90;88.60;;;;;;4993694;28;20388;-65
2022/06/12 00:52:40;;;;;;;3.23;1.10;;;18.00;88.10;;;;;;4993666;28;20573;-65
2022/06/12 00:55:24;;;;;;;7.00;1.27;;;18.30;86.80;;;;;;4993573;28;20284;-65
2022/06/12 00:57:53;;;;;;;2.58;0.80;;;18.50;85.50;;;;;;4993490;28;20058;-65
2022/06/12 01:00:19;;;;;;;2.00;0.70;;;18.90;83.40;;;;;;4993915;28;20030;-65
2022/06/12 01:02:44;;;;;;;1.50;0.65;;;19.20;82.30;;;;;;4993978;28;20390;-65
2022/06/12 01:08:03;;;;;;;1.98;0.88;;;18.70;84.40;;;;;;4993607;28;20397;-65
2022/06/12 01:10:29;;;;;;;3.25;0.95;;;18.40;85.50;;;;;;4993620;28;20038;-65
2022/06/12 01:13:00;;;;;;;2.80;0.98;;;18.40;85.10;;;;;;4993646;28;20042;-65
2022/06/12 01:15:30;;;;;;;1.25;0.88;;;18.50;85.00;;;;;;4993406;28;20053;-65
2022/06/12 01:17:57;;;;;;;;;;;18.50;84.80;;;;;;4993788;28;20461;-65
2022/06/12 01:20:27;;;;;;;2.03;0.70;;;18.40;85.20;;;;;;4993433;28;19913;-65
2022/06/12 01:23:34;;;;;;;2.70;0.90;;;18.30;85.60;;;;;;4995993;28;20124;-65
2022/06/12 01:26:37;;;;;;;1.88;0.70;;;18.20;86.50;;;;;;4964329;28;20042;-65
2022/06/12 01:29:17;;;;;;;3.17;1.15;;;18.00;87.00;;;;;;4997332;28;20401;-65
2022/06/12 01:31:54;;;;;;;5.10;1.23;;;17.70;88.60;;;;;;4997429;28;20038;-64
2022/06/12 01:34:26;;;;;;;3.97;1.05;;;17.40;90.10;;;;;;4997265;28;20089;-65
2022/06/12 01:37:23;;;;;;;4.28;0.90;;;17.60;88.20;;;;;;4997008;28;20107;-65
2022/06/12 01:40:05;;;;;;;1.48;0.70;;;17.90;87.10;;;;;;4997317;28;20132;-66
2022/06/12 01:42:45;;;;;;;1.60;0.70;;;18.10;89.90;;;;;;4997011;28;20045;-66
2022/06/12 01:45:36;;;;;;;3.50;0.73;;;18.20;84.70;;;;;;4996875;28;20040;-65
2022/06/12 01:48:02;;;;;;;3.63;0.90;;;18.30;83.60;;;;;;4997002;28;20042;-65
2022/06/12 01:50:43;;;;;;;1.52;0.80;;;18.30;84.30;;;;;;4997012;28;20042;-65
2022/06/12 01:53:32;;;;;;;1.17;0.55;;;17.90;85.80;;;;;;4997013;28;20418;-65
2022/06/12 01:56:06;;;;;;;1.98;0.90;;;18.20;84.80;;;;;;4996880;28;20046;-65
2022/06/12 01:58:55;;;;;;;2.85;0.82;;;18.30;84.90;;;;;;4996859;28;20076;-65
2022/06/12 02:01:27;;;;;;;1.52;0.80;;;18.20;85.30;;;;;;4993815;28;20034;-65
2022/06/12 02:04:18;;;;;;;2.58;0.77;;;18.10;85.40;;;;;;4996290;28;20100;-65
2022/06/12 02:07:03;;;;;;;1.17;0.60;;;18.10;84.90;;;;;;4970122;28;20038;-65
2022/06/12 02:09:37;;;;;;;2.03;0.60;;;18.10;85.30;;;;;;4977223;28;20458;-65
2022/06/12 02:15:14;;;;;;;1.58;0.60;;;18.50;82.50;;;;;;4976952;28;20069;-65
2022/06/12 02:18:12;;;;;;;3.85;0.77;;;18.60;83.70;;;;;;4976885;28;20113;-65
2022/06/12 02:20:42;;;;;;;1.63;0.65;;;18.40;84.60;;;;;;4976507;28;20080;-66
2022/06/12 02:23:18;;;;;;;2.20;0.80;;;18.20;85.60;;;;;;4977012;28;20065;-65
2022/06/12 02:25:47;;;;;;;2.67;0.85;;;18.20;85.00;;;;;;4974550;28;20070;-65
2022/06/12 02:28:16;;;;;;;1.45;0.70;;;18.30;84.60;;;;;;4993694;28;20038;-65
2022/06/12 02:30:46;;;;;;;2.10;0.70;;;18.50;83.80;;;;;;4995812;28;20042;-65
2022/06/12 02:33:16;;;;;;;3.88;1.02;;;18.50;84.30;;;;;;4995876;28;20117;-65
2022/06/12 02:35:45;;;;;;;1.10;0.80;;;18.40;86.00;;;;;;4996109;28;20501;-65
2022/06/12 02:38:33;;;;;;;1.42;0.90;;;18.20;87.90;;;;;;4996154;28;20132;-65
2022/06/12 02:41:07;;;;;;;1.73;0.90;;;18.30;89.00;;;;;;4995262;28;20046;-65
2022/06/12 02:43:36;;;;;;;1.65;0.98;;;18.40;89.70;;;;;;4995668;28;20401;-65
2022/06/12 02:46:23;;;;;;;1.33;0.85;;;18.20;89.90;;;;;;4995787;28;20042;-65
2022/06/12 02:48:49;;;;;;;3.03;1.27;;;18.50;88.40;;;;;;4995776;28;20093;-65
2022/06/12 02:51:35;;;;;;;2.40;0.80;;;18.70;88.20;;;;;;4995943;28;20041;-65
2022/06/12 02:54:07;;;;;;;4.63;1.10;;;18.50;90.00;;;;;;4995810;28;20046;-65
2022/06/12 02:56:53;;;;;;;1.77;0.80;;;;;;;;;;4995824;28;20065;-65
2022/06/12 02:59:34;;;;;;;5.13;1.10;;;18.90;87.30;;;;;;4995536;28;20057;-65
2022/06/12 03:02:11;;;;;;;1.70;0.88;;;18.90;88.00;;;;;;4995681;28;20038;-65
2022/06/12 03:04:48;;;;;;;2.70;1.20;;;18.70;90.80;;;;;;4995470;28;20512;-65
2022/06/12 03:07:14;;;;;;;2.70;0.85;;;18.50;89.80;;;;;;4995589;28;20473;-65
2022/06/12 03:09:41;;;;;;;2.13;0.90;;;18.30;90.10;;;;;;4995547;28;20038;-65
2022/06/12 03:12:07;;;;;;;1.27;0.90;;;18.30;89.30;;;;;;4995520;28;20072;-65
2022/06/12 03:14:34;;;;;;;2.88;0.90;;;18.30;90.80;;;;;;4995433;28;20054;-65
2022/06/12 03:17:00;;;;;;;3.58;0.85;;;18.20;91.00;;;;;;4995205;28;20580;-65
2022/06/12 03:19:29;;;;;;;2.80;1.00;;;18.10;91.70;;;;;;4995414;28;20062;-65
2022/06/12 03:22:06;;;;;;;2.70;0.80;;;18.00;89.60;;;;;;4995271;28;20046;-65
2022/06/12 03:24:43;;;;;;;1.50;0.60;;;18.00;86.20;;;;;;4995250;28;20039;-65
2022/06/12 03:27:21;;;;;;;2.28;0.80;;;18.00;87.60;;;;;;4995081;28;20034;-65
2022/06/12 03:29:56;;;;;;;2.75;0.90;;;17.90;89.80;;;;;;4995037;28;20042;-65
2022/06/12 03:32:29;;;;;;;2.88;0.77;;;17.90;90.30;;;;;;4994853;28;20072;-65
2022/06/12 03:35:21;;;;;;;7.03;1.08;;;18.10;90.40;;;;;;4994949;28;20383;-65
2022/06/12 03:38:04;;;;;;;1.88;0.85;;;18.30;89.90;;;;;;4994815;28;20046;-65
2022/06/12 03:41:07;;;;;;;2.25;0.85;;;18.40;90.00;;;;;;4995019;28;20046;-65
2022/06/12 03:43:40;;;;;;;2.20;1.00;;;18.30;90.30;;;;;;4994981;28;20038;-65
2022/06/12 03:46:33;;;;;;;2.65;0.80;;;18.30;90.80;;;;;;4994323;28;20034;-65
2022/06/12 03:49:26;;;;;;;1.73;0.90;;;18.30;88.90;;;;;;4994817;28;20034;-65
2022/06/12 03:52:04;;;;;;;5.22;1.42;;;18.30;91.20;;;;;;4992986;28;20049;-65
2022/06/12 03:54:45;;;;;;;2.50;0.80;;;18.20;91.40;;;;;;4975445;28;20066;-65
2022/06/12 04:00:07;;;;;;;3.67;0.90;;;18.40;90.30;;;;;;4975043;28;20417;-65
2022/06/12 04:02:35;;;;;;;1.50;0.73;;;18.60;89.10;;;;;;4974743;28;20513;-65
2022/06/12 04:05:04;;;;;;;2.47;0.82;;;18.80;88.30;;;;;;4974993;28;20046;-65
2022/06/12 04:07:33;;;;;;;3.13;1.20;;;18.90;89.30;;;;;;4975062;28;20042;-65
2022/06/12 04:10:02;;;;;;;4.65;1.20;;;19.00;89.50;;;;;;4977527;28;20100;-65
2022/06/12 04:12:33;;;;;;;3.28;1.38;;;19.10;88.60;;;;;;4994619;28;20034;-65
2022/06/12 04:15:05;;;;;;;;;;;19.10;95.60;;;;;;4994856;28;20038;-65
2022/06/12 04:17:31;;;;;;;1.70;0.90;;;18.50;96.10;;;;;;4994092;28;19917;-65
2022/06/12 04:20:03;;;;;;;2.30;0.90;;;18.30;91.50;;;;;;4994354;28;20080;-65
2022/06/12 04:23:00;;;;;;;5.40;1.20;;;18.20;91.80;;;;;;4994381;28;20049;-65
2022/06/12 04:25:45;;;;;;;3.55;1.30;;;18.20;91.80;;;;;;4994215;28;20121;-65
2022/06/12 04:28:35;;;;;;;3.15;1.08;;;18.20;91.90;;;;;;4994121;28;20045;-65
2022/06/12 04:31:04;;;;;;;4.20;1.20;;;18.20;92.00;;;;;;4994134;28;20053;-65
2022/06/12 04:33:41;;;;;;;2.38;1.00;;;18.30;92.20;;;;;;4994000;28;20034;-65
2022/06/12 04:36:08;;;;;;;1.77;1.13;;;17.60;93.80;;;;;;4993802;28;20077;-65
2022/06/12 04:38:35;;;;;;;4.15;1.10;;;17.20;94.90;;;;;;4994156;28;20162;-65
2022/06/12 04:41:01;;;;;;;2.95;0.98;;;17.30;94.50;;;;;;4994003;28;20042;-65
2022/06/12 04:43:28;;;;;;;1.92;1.08;;;17.60;94.20;;;;;;4993942;28;20053;-65
2022/06/12 04:45:54;;;;;;;2.53;1.02;;;17.80;94.10;;;;;;4993754;28;20383;-65
2022/06/12 04:48:34;;;;;;;1.88;0.98;;;17.90;94.20;;;;;;4993702;28;20054;-65
2022/06/12 04:51:00;;;;;;;3.60;0.88;;;18.00;94.20;;;;;;4993872;28;20034;-65
2022/06/12 04:53:25;;;;;;;1.70;0.82;;;18.00;94.20;;;;;;4993873;28;20126;-65
2022/06/12 04:55:51;;;;;;;2.50;1.25;;;18.10;93.60;;;;;;4993426;28;20054;-65
2022/06/12 04:58:17;;;;;;;3.40;1.00;;;18.30;93.30;;;;;;4993503;28;20038;-65
2022/06/12 05:00:43;;;;;;;4.50;1.00;;;18.30;93.00;;;;;;4993601;28;20050;-65
2022/06/12 05:03:11;;;;;;;3.60;1.08;;;18.40;93.10;;;;;;4993567;28;20169;-65
2022/06/12 05:05:37;;;;;;;3.17;0.82;;;18.40;93.00;;;;;;4993654;28;20038;-65
2022/06/12 05:08:03;;;;;;;5.43;1.10;;;18.50;92.70;;;;;;4993625;28;20034;-65
2022/06/12 05:10:29;;;;;;;2.92;1.25;;;18.70;92.30;;;;;;4993615;28;20045;-65
2022/06/12 05:12:54;;;;;;;3.03;0.82;;;18.80;92.20;;;;;;4993449;28;20410;-65
2022/06/12 05:15:20;;;;;;;2.65;0.90;;;19.00;93.00;;;;;;4993381;28;20041;-65
2022/06/12 05:17:48;;;;;;;3.08;1.02;;;19.20;92.80;;;;;;4993338;28;20048;-65
2022/06/12 05:20:26;;;;;;;2.42;0.90;;;19.40;92.70;;;;;;4993723;28;20792;-65
2022/06/12 05:22:51;;;;;;;5.63;1.90;;;19.60;92.50;;;;;;4993520;28;20047;-65
2022/06/12 05:25:18;;;;;;;1.42;0.98;;;19.70;92.40;;;;;;4993459;28;20042;-65
2022/06/12 05:27:46;;;;;;;5.57;1.58;;;19.90;94.70;;;;;;4993560;28;20088;-65
2022/06/12 05:30:20;;;;;;;1.77;1.00;;;19.90;93.30;;;;;;4993212;28;20045;-66
2022/06/12 05:32:48;;;;;;;5.80;1.30;;;20.10;92.60;;;;;;4990464;28;20049;-66
2022/06/12 05:35:15;;;;;;;1.77;0.90;;;20.40;92.60;;;;;;4992257;28;20433;-65
2022/06/12 05:37:41;;;;;;;2.55;1.13;;;20.50;92.50;;;;;;4991956;28;20074;-66
2022/06/12 05:40:11;;;;;;;3.72;1.50;;;20.70;94.20;;;;;;4993124;28;20109;-66
2022/06/12 05:42:40;;;;;;;5.00;1.20;;;20.70;93.00;;;;;;4993110;28;20045;-66
2022/06/12 05:45:12;;;;;;;5.38;1.60;;;20.50;94.20;;;;;;4992994;28;20046;-65
2022/06/12 05:48:10;;;;;;;2.85;0.90;;;20.50;95.30;;;;;;4992159;28;20121;-66
2022/06/12 05:50:44;;;;;;;3.58;1.08;;;20.60;95.10;;;;;;4988995;28;20084;-66
2022/06/12 05:53:10;;;;;;;2.67;1.30;;;20.50;95.30;;;;;;4991915;28;20038;-66
2022/06/12 05:55:36;;;;;;;4.82;1.20;;;20.10;95.20;;;;;;4992907;28;20157;-66
2022/06/12 05:58:01;;;;;;;3.15;0.85;;;20.00;94.70;;;;;;4992881;28;20038;-65
2022/06/12 06:00:31;;;;;;;1.17;0.90;;;20.40;95.00;;;;;;4993175;28;20057;-66
2022/06/12 06:02:57;;;;;;;2.10;0.85;;;21.00;94.40;;;;;;4993257;28;20401;-66
2022/06/12 06:05:23;;;;;;;1.58;1.00;;;21.40;93.70;;;;;;4993201;28;20038;-66
2022/06/12 06:07:49;;;;;;;2.83;1.00;;;21.70;91.70;;;;;;4993649;28;20097;-66
2022/06/12 06:10:20;;;;;;;2.33;1.02;;;21.80;92.50;;;;;;4996495;28;20042;-65
2022/06/12 06:12:45;;;;;;;;;;;21.90;93.50;;;;;;4993467;28;20058;-66
2022/06/12 06:15:12;;;;;;;1.80;0.90;;;21.90;93.90;;;;;;4996410;28;19918;-66
2022/06/12 06:17:38;;;;;;;2.47;1.20;;;21.90;95.40;;;;;;4996266;28;20038;-66
2022/06/12 06:20:05;;;;;;;4.57;1.08;;;21.70;94.80;;;;;;4996417;28;20401;-66
2022/06/12 06:22:32;;;;;;;7.43;1.30;;;22.10;95.70;;;;;;4996524;28;20053;-66
2022/06/12 06:24:58;;;;;;;6.10;1.00;;;22.40;94.40;;;;;;4996663;28;20038;-66
2022/06/12 06:27:24;;;;;;;1.67;0.82;;;22.60;93.20;;;;;;4994817;28;20038;-66
2022/06/12 06:29:50;;;;;;;5.70;1.23;;;23.00;94.40;;;;;;4993280;28;20154;-66
2022/06/12 06:32:15;;;;;;;3.40;1.23;;;23.20;94.20;;;;;;4994910;28;20042;-66
2022/06/12 06:34:42;;;;;;;6.85;1.25;;;23.30;94.00;;;;;;4995961;28;20731;-66
2022/06/12 06:37:10;;;;;;;2.28;0.88;;;23.30;95.20;;;;;;4996142;28;20046;-66
2022/06/12 06:39:37;;;;;;;3.67;1.33;;;23.30;94.90;;;;;;4996074;28;20104;-66
2022/06/12 06:42:03;;;;;;;1.85;1.08;;;23.40;94.50;;;;;;4996307;28;20441;-66
2022/06/12 06:47:13;;;;;;;3.67;1.08;;;23.50;94.10;;;;;;4995703;28;20097;-66
2022/06/12 06:49:39;;;;;;;3.08;0.80;;;23.50;94.50;;;;;;4995794;28;20046;-67
2022/06/12 06:52:05;;;;;;;3.25;0.93;;;23.70;96.50;;;;;;4995872;28;20486;-66
2022/06/12 06:54:31;;;;;;;2.30;1.05;;;23.50;92.80;;;;;;4995852;28;20050;-66
2022/06/12 06:56:57;;;;;;;3.83;1.02;;;23.20;92.20;;;;;;4995744;28;20037;-66
2022/06/12 06:59:23;;;;;;;2.53;0.98;;;;;;;;;;4994281;28;20084;-67
2022/06/12 07:01:49;;;;;;;3.47;1.30;;;23.60;92.10;;;;;;4995289;28;20513;-66
2022/06/12 07:04:15;;;;;;;4.78;1.00;;;23.70;92.10;;;;;;4995520;28;20038;-66
2022/06/12 07:06:41;;;;;;;3.20;1.02;;;23.80;92.20;;;;;;4995474;28;20038;-66
2022/06/12 07:09:07;;;;;;;1.58;0.88;;;23.90;92.40;;;;;;4995699;28;20050;-66
2022/06/12 07:11:33;;;;;;;2.33;1.13;;;24.10;92.30;;;;;;4995485;28;20405;-66
2022/06/12 07:13:59;;;;;;;4.18;1.20;;;24.10;90.70;;;;;;4995407;28;20037;-66
2022/06/12 07:16:27;;;;;;;2.00;0.90;;;24.20;91.10;;;;;;4995176;28;20052;-66
2022/06/12 07:18:53;;;;;;;3.03;1.15;;;24.10;91.50;;;;;;4994549;28;20058;-66
2022/06/12 07:21:19;;;;;;;2.92;0.90;;;24.40;92.20;;;;;;4994704;28;20046;-66
2022/06/12 07:23:45;;;;;;;3.67;1.42;;;24.70;91.60;;;;;;4995212;28;20049;-66
2022/06/12 07:26:33;;;;;;;3.70;1.27;;;24.80;90.60;;;;;;4995200;28;20066;-66
2022/06/12 07:28:59;;;;;;;3.90;0.90;;;25.20;90.10;;;;;;4994707;28;20042;-66
2022/06/12 07:31:26;;;;;;;2.28;0.75;;;25.20;87.30;;;;;;4995097;28;20041;-66
2022/06/12 07:33:52;;;;;;;4.70;1.10;;;25.50;85.40;;;;;;4994968;28;20049;-67
2022/06/12 07:36:19;;;;;;;2.30;1.02;;;25.40;87.50;;;;;;4994680;28;20042;-66
2022/06/12 07:38:47;;;;;;;1.42;0.88;;;25.60;87.30;;;;;;4994683;28;20081;-66
2022/06/12 07:41:14;;;;;;;2.42;0.90;;;25.50;86.50;;;;;;4994979;28;20041;-66
2022/06/12 07:43:41;;;;;;;4.50;0.98;;;25.90;87.40;;;;;;4994939;28;20074;-66
2022/06/12 07:46:10;;;;;;;2.15;1.13;;;26.20;87.40;;;;;;4994705;28;20042;-66
2022/06/12 07:48:38;;;;;;;2.72;1.10;;;26.20;86.70;;;;;;4994871;28;20050;-66
2022/06/12 07:51:07;;;;;;;3.50;0.95;;;26.30;87.00;;;;;;4994725;28;20042;-66
2022/06/12 07:53:34;;;;;;;3.33;1.00;;;26.20;84.00;;;;;;4994739;28;20038;-66
2022/06/12 07:56:01;;;;;;;2.50;1.02;;;26.30;85.50;;;;;;4994683;28;20039;-67
2022/06/12 07:58:27;;;;;;;5.30;1.10;;;26.50;85.80;;;;;;4994553;28;20137;-66
2022/06/12 08:00:58;;;;;;;2.47;1.27;;;26.70;85.40;;;;;;4994623;28;20134;-66
2022/06/12 08:03:25;;;;;;;1.50;1.00;;;26.80;85.10;;;;;;4994631;28;20050;-66
2022/06/12 08:05:51;;;;;;;4.85;1.05;;;26.90;85.20;;;;;;4994568;28;20068;-67
2022/06/12 08:08:17;;;;;;;1.70;0.73;;;26.90;87.80;;;;;;4994569;28;20125;-67
2022/06/12 08:10:43;;;;;;;5.72;1.40;;;26.90;85.70;;;;;;4994175;28;20125;-67
2022/06/12 08:13:10;;;;;;;3.72;0.95;;;27.10;86.80;;;;;;4994275;28;20050;-67
2022/06/12 08:15:38;;;;;;;2.70;0.95;;;27.40;87.40;;;;;;4994274;28;20053;-66
2022/06/12 08:18:04;;;;;;;4.40;0.73;;;27.20;83.60;;;;;;4994307;28;20054;-66
2022/06/12 08:20:33;;;;;;;4.50;0.98;;;27.30;86.30;;;;;;4977069;28;20177;-66
2022/06/12 08:23:32;;;;;;;2.05;0.90;;;27.40;85.70;;;;;;4994127;28;20125;-66
2022/06/12 08:26:08;;;;;;;3.45;1.30;;;27.30;82.90;;;;;;4994111;28;20046;-67
2022/06/12 08:28:37;;;;;;;2.35;0.82;;;27.70;86.50;;;;;;4994083;28;20068;-66
2022/06/12 08:31:06;;;;;;;3.77;1.10;;;27.90;84.70;;;;;;4993970;28;20381;-66
2022/06/12 08:33:35;;;;;;;4.78;0.90;;;28.00;83.60;;;;;;4993883;28;20038;-67
2022/06/12 08:36:00;;;;;;;5.68;1.10;;;28.30;84.70;;;;;;4994224;28;20054;-67
2022/06/12 08:38:26;;;;;;;2.65;1.00;;;28.20;83.20;;;;;;4993962;28;20050;-67
2022/06/12 08:41:17;;;;;;;4.72;0.90;;;28.20;83.50;;;;;;4993857;28;20517;-67
2022/06/12 08:44:03;;;;;;;2.28;1.17;;;28.40;83.50;;;;;;4993895;28;20042;-67
2022/06/12 08:46:45;;;;;;;1.85;1.02;;;28.50;82.50;;;;;;4993905;28;20041;-67
2022/06/12 08:49:24;;;;;;;2.63;0.90;;;27.20;78.00;;;;;;4993917;28;20564;-67
2022/06/12 08:52:08;;;;;;;1.73;0.93;;;27.70;78.90;;;;;;4993803;28;20049;-66
2022/06/12 08:54:44;;;;;;;2.58;1.25;;;28.00;76.70;;;;;;4993582;28;20052;-67
2022/06/12 08:57:21;;;;;;;1.58;0.85;;;28.40;78.10;;;;;;4993628;28;20492;-67
2022/06/12 08:59:58;;;;;;;2.50;0.80;;;28.60;79.30;;;;;;4993578;28;20417;-66
2022/06/12 09:02:30;;;;;;;2.92;1.23;;;28.20;76.50;;;;;;4993521;28;20449;-66
2022/06/12 09:04:58;;;;;;;2.22;0.98;;;28.50;79.10;;;;;;4993781;28;20039;-67
2022/06/12 09:07:34;;;;;;;1.95;1.15;;;28.40;75.20;;;;;;4993639;28;20097;-67
2022/06/12 09:10:14;;;;;;;1.65;0.70;;;27.90;75.20;;;;;;4993747;28;20050;-67
2022/06/12 09:12:50;;;;;;;;;;;28.50;76.00;;;;;;4994146;28;20022;-66
2022/06/12 09:15:25;;;;;;;1.13;0.60;;;27.70;77.00;;;;;;4993804;28;19910;-66
2022/06/12 09:18:42;;;;;;;4.28;1.30;;;28.10;77.70;;;;;;4993479;28;20113;-66
2022/06/12 09:21:36;;;;;;;1.65;1.02;;;28.20;77.00;;;;;;4939628;28;20054;-66
2022/06/12 09:24:28;;;;;;;3.15;1.23;;;28.30;76.70;;;;;;4993489;28;20121;-66
2022/06/12 09:27:17;;;;;;;3.67;1.05;;;27.70;75.90;;;;;;4980529;28;20053;-66
2022/06/12 09:30:05;;;;;;;1.33;0.80;;;27.40;77.80;;;;;;4993471;28;20049;-66
2022/06/12 09:32:59;;;;;;;3.15;1.63;;;27.20;78.70;;;;;;4993385;28;20038;-66
2022/06/12 09:36:03;;;;;;;5.85;1.20;;;26.90;78.30;;;;;;4993378;28;20054;-66
2022/06/12 09:38:46;;;;;;;3.17;0.90;;;27.00;80.40;;;;;;4993435;28;20054;-66
2022/06/12 09:41:26;;;;;;;3.55;1.20;;;27.20;79.20;;;;;;4993342;28;20046;-66
2022/06/12 09:43:55;;;;;;;1.85;0.90;;;28.00;79.10;;;;;;4995677;28;20062;-66
2022/06/12 09:47:00;;;;;;;2.67;1.00;;;27.60;78.60;;;;;;4996818;28;20046;-66
2022/06/12 09:49:29;;;;;;;4.43;1.30;;;28.20;77.50;;;;;;4996169;28;20038;-66
2022/06/12 09:52:20;;;;;;;2.50;1.20;;;27.70;78.70;;;;;;4997082;28;20044;-66
2022/06/12 09:55:22;;;;;;;2.72;1.30;;;27.50;78.50;;;;;;4996933;28;20428;-66
2022/06/12 09:57:57;;;;;;;3.72;1.60;;;27.60;80.00;;;;;;4996815;28;20607;-66
2022/06/12 10:00:51;;;;;;;3.47;1.40;;;27.40;79.40;;;;;;4996742;28;20501;-66
2022/06/12 10:03:26;;;;;;;4.80;0.90;;;28.00;79.30;;;;;;4996621;28;20030;-66
2022/06/12 10:06:04;;;;;;;3.40;1.10;;;27.50;76.90;;;;;;4996763;28;20410;-66
2022/06/12 10:09:07;;;;;;;2.50;1.33;;;27.80;78.20;;;;;;4996710;28;20135;-66
2022/06/12 10:11:45;;;;;;;3.78;1.02;;;28.50;79.90;;;;;;4898414;29;20041;-66
2022/06/12 10:14:16;;;;;;;3.30;1.00;;;28.20;79.00;;;;;;4986374;28;20045;-66
2022/06/12 10:16:56;;;;;;;;;;;28.20;78.40;;;;;;4996747;28;20611;-66
2022/06/12 10:19:30;;;;;;;2.05;0.85;;;27.60;80.20;;;;;;4996249;28;19917;-66
2022/06/12 10:22:09;;;;;;;2.03;1.20;;;27.60;79.50;;;;;;4996176;28;20130;-66
2022/06/12 10:24:35;;;;;;;1.77;1.00;;;27.50;78.60;;;;;;4996265;28;20470;-66
2022/06/12 10:27:08;;;;;;;5.25;1.27;;;28.60;82.30;;;;;;4996149;28;20038;-66
2022/06/12 10:29:54;;;;;;;1.55;0.80;;;28.20;77.30;;;;;;4992974;28;20552;-66
2022/06/12 10:32:24;;;;;;;2.97;0.90;;;28.30;79.20;;;;;;4992359;28;20052;-66
2022/06/12 10:34:51;;;;;;;3.40;1.00;;;28.90;77.80;;;;;;4993992;28;20039;-66
2022/06/12 10:37:29;;;;;;;2.15;0.90;;;28.30;78.10;;;;;;4995111;28;20035;-66
2022/06/12 10:40:27;;;;;;;2.70;1.10;;;28.30;77.60;;;;;;4995831;28;20061;-66
2022/06/12 10:42:58;;;;;;;2.97;0.95;;;28.20;78.00;;;;;;4973380;28;20052;-66
2022/06/12 10:45:31;;;;;;;4.78;1.08;;;27.90;76.60;;;;;;4995969;28;20042;-66
2022/06/12 10:48:00;;;;;;;2.75;0.98;;;28.20;77.20;;;;;;4995932;28;20042;-66
2022/06/12 10:50:48;;;;;;;2.08;1.00;;;28.70;77.20;;;;;;4995891;28;20052;-66
2022/06/12 10:53:18;;;;;;;1.83;1.10;;;28.80;75.90;;;;;;4995350;28;20042;-66
2022/06/12 10:55:57;;;;;;;4.10;1.10;;;29.10;77.60;;;;;;4995656;28;20121;-66
2022/06/12 10:58:41;;;;;;;5.97;0.93;;;29.20;76.30;;;;;;4995522;28;20045;-66
2022/06/12 11:01:22;;;;;;;2.75;1.02;;;29.00;74.70;;;;;;4995822;28;20054;-66
2022/06/12 11:04:18;;;;;;;3.22;1.10;;;27.80;74.80;;;;;;4995617;28;20049;-66
2022/06/12 11:06:48;;;;;;;3.97;1.00;;;28.20;76.60;;;;;;4995629;28;20038;-66
2022/06/12 11:09:21;;;;;;;4.03;1.20;;;27.80;75.90;;;;;;4995510;28;20042;-66
2022/06/12 11:12:03;;;;;;;2.10;1.00;;;28.20;76.20;;;;;;4995352;28;20462;-66
2022/06/12 11:14:55;;;;;;;5.28;1.63;;;28.90;78.50;;;;;;4995238;28;20050;-66
2022/06/12 11:17:38;;;;;;;4.32;1.20;;;29.10;76.40;;;;;;4995252;28;20042;-66
2022/06/12 11:20:39;;;;;;;2.35;0.88;;;29.00;75.90;;;;;;4995193;28;20054;-66
2022/06/12 11:23:34;;;;;;;2.78;1.20;;;29.20;74.70;;;;;;4995275;28;20042;-66
2022/06/12 11:26:26;;;;;;;2.42;0.80;;;28.90;74.00;;;;;;4995084;28;20145;-66
2022/06/12 11:29:13;;;;;;;4.70;1.15;;;28.90;74.10;;;;;;4995040;28;20042;-66
2022/06/12 11:32:18;;;;;;;3.35;0.93;;;28.90;74.40;;;;;;4994926;28;20402;-66
2022/06/12 11:35:15;;;;;;;1.60;0.93;;;28.80;74.30;;;;;;4977477;28;20074;-66
2022/06/12 11:37:46;;;;;;;1.73;0.70;;;29.00;78.00;;;;;;4995144;28;20038;-66
2022/06/12 11:40:46;;;;;;;2.08;1.25;;;29.20;76.00;;;;;;4995035;28;20053;-66
2022/06/12 11:43:31;;;;;;;4.63;1.55;;;29.20;73.40;;;;;;4980393;28;20073;-66
2022/06/12 11:46:05;;;;;;;2.75;1.10;;;29.10;74.80;;;;;;4994932;28;20077;-67
2022/06/12 11:49:13;;;;;;;2.95;1.10;;;29.00;73.80;;;;;;4994778;28;20046;-66
2022/06/12 11:51:53;;;;;;;4.13;1.10;;;29.20;75.80;;;;;;4994805;28;20556;-66
2022/06/12 11:54:25;;;;;;;3.95;1.42;;;29.20;74.20;;;;;;4994727;28;20046;-66
2022/06/12 11:56:56;;;;;;;5.18;1.00;;;29.40;75.90;;;;;;4994707;28;20040;-66
2022/06/12 11:59:43;;;;;;;3.70;1.17;;;29.60;79.50;;;;;;4994649;28;20521;-66
2022/06/12 12:02:33;;;;;;;1.85;1.10;;;29.30;75.80;;;;;;4994525;28;20043;-66
2022/06/12 12:05:14;;;;;;;3.22;1.10;;;29.00;74.60;;;;;;4994326;28;20038;-66
2022/06/12 12:07:57;;;;;;;4.18;1.13;;;28.90;74.40;;;;;;4994411;28;20042;-66
2022/06/12 12:10:57;;;;;;;2.92;1.25;;;29.30;74.40;;;;;;4994233;28;20066;-66
2022/06/12 12:13:42;;;;;;;1.98;0.90;;;28.70;73.80;;;;;;4993456;28;20410;-67
2022/06/12 12:16:24;;;;;;;2.72;0.98;;;28.90;74.60;;;;;;4994326;28;20034;-66
2022/06/12 12:18:56;;;;;;;1.85;0.80;;;29.00;74.80;;;;;;4994245;28;20126;-66
2022/06/12 12:21:42;;;;;;;5.65;1.20;;;28.90;74.30;;;;;;4994073;28;20065;-66
2022/06/12 12:24:14;;;;;;;2.60;0.98;;;29.00;74.40;;;;;;4994098;28;20501;-66
2022/06/12 12:26:42;;;;;;;3.20;1.08;;;29.20;75.80;;;;;;4994303;28;20048;-66
2022/06/12 12:29:31;;;;;;;1.92;0.80;;;29.20;75.10;;;;;;4994151;28;20454;-66
2022/06/12 12:31:58;;;;;;;3.45;1.25;;;29.50;75.30;;;;;;4994042;28;20046;-66
2022/06/12 12:34:27;;;;;;;6.22;1.77;;;29.30;74.00;;;;;;4993920;28;20038;-66
2022/06/12 12:42:35;;;;;;;4.57;0.95;;;29.10;74.10;;;;;;4993996;28;20034;-66
2022/06/12 12:45:19;;;;;;;1.98;0.77;;;29.10;75.60;;;;;;4993898;28;20065;-66
2022/06/12 12:47:44;;;;;;;2.67;0.75;;;29.60;74.80;;;;;;4993625;28;20045;-66
2022/06/12 12:50:16;;;;;;;2.88;1.48;;;29.80;76.80;;;;;;4993759;28;20049;-66
2022/06/12 12:52:48;;;;;;;2.53;1.13;;;30.00;76.80;;;;;;4993993;28;20044;-66
2022/06/12 12:55:25;;;;;;;1.95;1.25;;;29.90;75.00;;;;;;4993738;28;20057;-66
2022/06/12 12:57:52;;;;;;;3.03;1.10;;;29.30;74.80;;;;;;4993749;28;20117;-66
2022/06/12 13:00:18;;;;;;;2.00;1.02;;;29.60;76.80;;;;;;4993619;28;20540;-66
2022/06/12 13:03:01;;;;;;;3.47;1.27;;;29.50;74.80;;;;;;4993746;28;20046;-66
2022/06/12 13:05:34;;;;;;;1.42;1.00;;;29.50;73.30;;;;;;4993725;28;20053;-66
2022/06/12 13:08:09;;;;;;;2.55;1.02;;;29.70;75.00;;;;;;4993714;28;20034;-66
2022/06/12 13:10:54;;;;;;;3.85;0.95;;;29.70;74.20;;;;;;4993564;28;20124;-66
2022/06/12 13:13:46;;;;;;;4.25;0.70;;;29.90;76.10;;;;;;4993700;28;20045;-66
2022/06/12 13:16:12;;;;;;;1.88;0.90;;;30.00;74.80;;;;;;4993515;28;20046;-66
2022/06/12 13:18:56;;;;;;;1.70;0.75;;;29.90;75.10;;;;;;4997266;28;20042;-66
2022/06/12 13:21:43;;;;;;;3.75;1.00;;;29.40;75.70;;;;;;4997376;28;20517;-66
2022/06/12 13:24:12;;;;;;;6.43;1.25;;;29.70;77.30;;;;;;4997440;28;20038;-66
2022/06/12 13:26:42;;;;;;;1.63;0.98;;;29.20;75.40;;;;;;4997432;28;20038;-66
2022/06/12 13:29:18;;;;;;;1.73;0.90;;;29.30;76.80;;;;;;4997404;28;20501;-66
2022/06/12 13:32:06;;;;;;;1.55;1.00;;;29.20;77.30;;;;;;4997155;28;20066;-66
2022/06/12 13:34:32;;;;;;;3.85;1.33;;;29.00;76.70;;;;;;4997185;28;20050;-66
2022/06/12 13:37:00;;;;;;;2.17;1.13;;;29.40;76.90;;;;;;4997118;28;20575;-66
2022/06/12 13:39:35;;;;;;;3.22;1.40;;;29.50;74.00;;;;;;4997158;28;20429;-66
2022/06/12 13:42:10;;;;;;;1.67;0.90;;;29.30;75.40;;;;;;4997141;28;20521;-66
2022/06/12 13:44:37;;;;;;;3.90;1.40;;;29.70;76.40;;;;;;4997311;28;20065;-66